createdAt,value
2022-12-18T00:00:00.409Z,6.8
2022-12-18T00:01:00.830Z,6.8
2022-12-18T00:02:00.524Z,6.8
2022-12-18T00:03:00.517Z,6.8
2022-12-18T00:04:01.981Z,6.8
2022-12-18T00:05:00.374Z,6.8
2022-12-18T00:06:00.606Z,6.8
2022-12-18T00:07:00.380Z,6.8
2022-12-18T00:08:00.402Z,6.8
2022-12-18T00:09:01.526Z,6.8
2022-12-18T00:10:00.422Z,6.8
2022-12-18T00:11:04.418Z,6.8
2022-12-18T00:13:03.798Z,6.8
2022-12-18T00:14:00.381Z,6.8
2022-12-18T00:15:00.411Z,6.8
2022-12-18T00:16:02.422Z,6.3
2022-12-18T00:17:00.430Z,6.3
2022-12-18T00:18:00.409Z,6.3
2022-12-18T00:19:00.726Z,6.3
2022-12-18T00:20:00.409Z,6.3
2022-12-18T00:21:01.258Z,6.3
2022-12-18T00:22:00.402Z,6.3
2022-12-18T00:23:00.416Z,6.3
2022-12-18T00:24:00.449Z,6.3
2022-12-18T00:25:00.383Z,6.3
2022-12-18T00:26:00.777Z,6.3
2022-12-18T00:27:00.401Z,6.3
2022-12-18T00:28:00.841Z,6.3
2022-12-18T00:29:02.994Z,6.3
2022-12-18T00:30:00.381Z,6.3
2022-12-18T00:31:01.605Z,6.3
2022-12-18T00:32:00.435Z,6.3
2022-12-18T00:33:00.405Z,6.3
2022-12-18T00:34:00.494Z,6.3
2022-12-18T00:35:00.440Z,6.3
2022-12-18T00:36:01.909Z,6.3
2022-12-18T00:37:00.404Z,6.3
2022-12-18T00:38:00.409Z,6.3
2022-12-18T00:39:02.285Z,6.3
2022-12-18T00:40:00.540Z,6.3
2022-12-18T00:41:00.746Z,6.3
2022-12-18T00:42:00.404Z,6.3
2022-12-18T00:43:00.398Z,6.3
2022-12-18T00:44:00.588Z,6.3
2022-12-18T00:45:00.406Z,6.3
2022-12-18T00:46:00.489Z,6.3
2022-12-18T00:47:00.385Z,6.3
2022-12-18T00:48:00.401Z,6.3
2022-12-18T00:49:00.384Z,6.3
2022-12-18T00:50:00.382Z,6.3
2022-12-18T00:51:00.375Z,6.3
2022-12-18T00:52:00.433Z,6.3
2022-12-18T00:53:00.407Z,6.3
2022-12-18T00:54:00.403Z,6.3
2022-12-18T00:55:05.862Z,6.3
2022-12-18T00:56:00.403Z,5.9
2022-12-18T00:57:00.378Z,5.9
2022-12-18T00:58:00.412Z,5.9
2022-12-18T00:59:00.406Z,5.9
2022-12-18T01:00:00.642Z,5.9
2022-12-18T01:01:00.502Z,5.9
2022-12-18T01:02:00.537Z,5.9
2022-12-18T01:03:00.467Z,5.9
2022-12-18T01:04:01.026Z,5.9
2022-12-18T01:05:00.399Z,5.9
2022-12-18T01:06:05.102Z,5.9
2022-12-18T01:07:00.449Z,5.9
2022-12-18T01:08:00.382Z,5.9
2022-12-18T01:09:00.430Z,5.9
2022-12-18T01:10:00.379Z,5.9
2022-12-18T01:11:00.701Z,5.9
2022-12-18T01:12:00.459Z,5.9
2022-12-18T01:13:00.379Z,5.9
2022-12-18T01:14:00.665Z,5.9
2022-12-18T01:15:00.436Z,5.9
2022-12-18T01:16:00.444Z,6.2
2022-12-18T01:17:00.384Z,6.2
2022-12-18T01:18:00.403Z,6.2
2022-12-18T01:19:00.399Z,6.2
2022-12-18T01:20:00.401Z,6.2
2022-12-18T01:21:00.390Z,6.2
2022-12-18T01:22:00.403Z,6.2
2022-12-18T01:23:00.405Z,6.2
2022-12-18T01:24:00.550Z,6.2
2022-12-18T01:25:00.776Z,6.2
2022-12-18T01:26:08.732Z,6.2
2022-12-18T01:27:00.377Z,6.2
2022-12-18T01:28:00.407Z,6.2
2022-12-18T01:29:00.376Z,6.2
2022-12-18T01:30:00.440Z,6.2
2022-12-18T01:31:10.336Z,6.2
2022-12-18T01:32:00.427Z,6.2
2022-12-18T01:33:00.433Z,6.2
2022-12-18T01:34:00.908Z,6.2
2022-12-18T01:35:00.370Z,5.9
2022-12-18T01:36:00.405Z,5.9
2022-12-18T01:37:02.135Z,5.9
2022-12-18T01:38:00.406Z,5.9
2022-12-18T01:39:01.329Z,5.9
2022-12-18T01:40:00.396Z,5.9
2022-12-18T01:41:00.755Z,5.9
2022-12-18T01:42:02.571Z,5.9
2022-12-18T01:43:00.471Z,5.9
2022-12-18T01:44:00.398Z,5.9
2022-12-18T01:45:10.313Z,5.9
2022-12-18T01:46:00.459Z,5.9
2022-12-18T01:47:00.410Z,5.9
2022-12-18T01:48:03.184Z,5.9
2022-12-18T01:49:01.135Z,5.9
2022-12-18T01:50:02.755Z,5.9
2022-12-18T01:51:00.907Z,5.9
2022-12-18T01:52:00.421Z,5.9
2022-12-18T01:53:05.474Z,5.9
2022-12-18T01:54:00.416Z,5.9
2022-12-18T01:55:01.628Z,6.6
2022-12-18T01:56:00.481Z,6.6
2022-12-18T01:57:00.423Z,6.6
2022-12-18T01:58:00.915Z,6.6
2022-12-18T01:59:02.551Z,6.6
2022-12-18T02:00:02.500Z,6.6
2022-12-18T02:01:00.502Z,6.6
2022-12-18T02:02:01.262Z,6.6
2022-12-18T02:03:00.506Z,6.6
2022-12-18T02:04:10.336Z,6.6
2022-12-18T02:05:00.669Z,6.6
2022-12-18T02:06:10.116Z,6.6
2022-12-18T02:07:10.338Z,6.6
2022-12-18T02:08:10.338Z,6.6
2022-12-18T02:09:10.337Z,6.6
2022-12-18T02:10:10.347Z,6.6
2022-12-18T02:11:10.321Z,6.6
2022-12-18T02:12:01.391Z,6.6
2022-12-18T02:13:00.386Z,6.6
2022-12-18T02:14:10.341Z,6.6
2022-12-18T02:15:06.399Z,6.4
2022-12-18T02:16:01.441Z,6.4
2022-12-18T02:17:10.311Z,6.4
2022-12-18T02:18:07.672Z,6.4
2022-12-18T02:19:03.773Z,6.4
2022-12-18T02:20:10.342Z,6.4
2022-12-18T02:21:10.311Z,6.4
2022-12-18T02:22:10.348Z,6.4
2022-12-18T02:23:01.447Z,6.4
2022-12-18T02:24:10.342Z,6.4
2022-12-18T02:25:10.311Z,6.4
2022-12-18T02:26:10.323Z,6.4
2022-12-18T02:27:04.668Z,6.4
2022-12-18T02:28:01.499Z,6.4
2022-12-18T02:29:04.917Z,6.4
2022-12-18T02:30:01.015Z,6.4
2022-12-18T02:31:02.728Z,6.4
2022-12-18T02:32:02.760Z,6.4
2022-12-18T02:33:02.161Z,6.4
2022-12-18T02:34:02.584Z,6.4
2022-12-18T02:35:02.253Z,6.7
2022-12-18T02:36:01.559Z,6.7
2022-12-18T02:37:02.239Z,6.7
2022-12-18T02:38:01.625Z,6.7
2022-12-18T02:39:01.453Z,6.7
2022-12-18T02:40:00.963Z,6.7
2022-12-18T02:41:00.712Z,6.7
2022-12-18T02:42:01.288Z,6.7
2022-12-18T02:43:10.337Z,6.7
2022-12-18T02:44:01.093Z,6.7
2022-12-18T02:45:00.437Z,6.7
2022-12-18T02:46:01.209Z,6.7
2022-12-18T02:47:00.932Z,6.7
2022-12-18T02:48:00.904Z,6.7
2022-12-18T02:49:05.534Z,6.7
2022-12-18T02:50:00.368Z,6.7
2022-12-18T02:51:00.368Z,6.7
2022-12-18T02:52:10.331Z,6.7
2022-12-18T02:53:10.333Z,6.7
2022-12-18T02:54:10.342Z,6.7
2022-12-18T02:55:01.381Z,6.3
2022-12-18T02:56:03.681Z,6.3
2022-12-18T02:57:04.294Z,6.3
2022-12-18T02:58:03.658Z,6.3
2022-12-18T02:59:00.392Z,6.3
2022-12-18T03:00:07.829Z,6.3
2022-12-18T03:01:03.563Z,6.3
2022-12-18T03:02:05.957Z,6.3
2022-12-18T03:03:05.295Z,6.3
2022-12-18T03:04:04.103Z,6.3
2022-12-18T03:05:07.596Z,6.3
2022-12-18T03:06:04.261Z,6.3
2022-12-18T03:07:03.196Z,6.3
2022-12-18T03:08:06.218Z,6.3
2022-12-18T03:09:04.763Z,6.3
2022-12-18T03:10:00.994Z,6.3
2022-12-18T03:11:02.939Z,6.3
2022-12-18T03:12:04.257Z,6.3
2022-12-18T03:13:04.486Z,6.3
2022-12-18T03:14:00.880Z,6.3
2022-12-18T03:15:15.938Z,6.8
2022-12-18T03:16:01.305Z,6.8
2022-12-18T03:17:02.147Z,6.8
2022-12-18T03:18:04.538Z,6.8
2022-12-18T03:19:03.044Z,6.8
2022-12-18T03:20:07.510Z,6.8
2022-12-18T03:21:02.813Z,6.8
2022-12-18T03:22:01.998Z,6.8
2022-12-18T03:23:04.168Z,6.8
2022-12-18T03:24:01.421Z,6.8
2022-12-18T03:25:02.772Z,6.8
2022-12-18T03:26:07.484Z,6.8
2022-12-18T03:27:02.422Z,6.8
2022-12-18T03:28:02.042Z,6.8
2022-12-18T03:29:04.330Z,6.8
2022-12-18T03:30:02.873Z,6.8
2022-12-18T03:31:01.094Z,6.8
2022-12-18T03:32:04.318Z,6.8
2022-12-18T03:33:00.668Z,6.8
2022-12-18T03:34:04.055Z,6.8
2022-12-18T03:35:03.060Z,6.3
2022-12-18T03:36:00.765Z,6.3
2022-12-18T03:37:01.078Z,6.3
2022-12-18T03:38:00.629Z,6.3
2022-12-18T03:39:00.500Z,6.3
2022-12-18T03:40:00.588Z,6.3
2022-12-18T03:41:07.717Z,6.3
2022-12-18T03:42:04.935Z,6.3
2022-12-18T03:43:08.180Z,6.3
2022-12-18T03:44:10.306Z,6.3
2022-12-18T03:45:06.403Z,6.3
2022-12-18T03:46:06.759Z,6.3
2022-12-18T03:47:05.289Z,6.3
2022-12-18T03:48:04.120Z,6.3
2022-12-18T03:49:08.470Z,6.3
2022-12-18T03:50:12.844Z,6.3
2022-12-18T03:51:04.959Z,6.3
2022-12-18T03:52:04.306Z,6.3
2022-12-18T03:53:06.555Z,6.3
2022-12-18T03:54:02.541Z,6.3
2022-12-18T03:55:01.792Z,6.3
2022-12-18T03:56:01.898Z,6.3
2022-12-18T03:57:04.718Z,6.3
2022-12-18T03:58:01.720Z,6.3
2022-12-18T03:59:02.214Z,6.3
2022-12-18T04:00:02.904Z,6.3
2022-12-18T04:01:02.055Z,6.3
2022-12-18T04:02:01.783Z,6.3
2022-12-18T04:03:01.511Z,6.3
2022-12-18T04:04:01.259Z,6.3
2022-12-18T04:05:02.134Z,6.3
2022-12-18T04:06:01.558Z,6.3
2022-12-18T04:07:01.350Z,6.3
2022-12-18T04:08:01.118Z,6.3
2022-12-18T04:09:00.513Z,6.3
2022-12-18T04:10:02.213Z,6.3
2022-12-18T04:11:00.808Z,6.3
2022-12-18T04:12:00.405Z,6.3
2022-12-18T04:13:00.404Z,6.3
2022-12-18T04:14:01.950Z,6.3
2022-12-18T04:15:00.409Z,6.5
2022-12-18T04:16:00.551Z,6.5
2022-12-18T04:17:00.394Z,6.5
2022-12-18T04:18:00.392Z,6.5
2022-12-18T04:19:00.406Z,6.5
2022-12-18T04:20:00.418Z,6.5
2022-12-18T04:21:00.378Z,6.5
2022-12-18T04:22:00.403Z,6.5
2022-12-18T04:23:00.368Z,6.5
2022-12-18T04:24:00.383Z,6.5
2022-12-18T04:25:00.396Z,6.5
2022-12-18T04:26:00.390Z,6.5
2022-12-18T04:27:00.367Z,6.5
2022-12-18T04:28:00.375Z,6.5
2022-12-18T04:29:00.374Z,6.5
2022-12-18T04:30:00.505Z,6.5
2022-12-18T04:31:00.433Z,6.5
2022-12-18T04:32:00.550Z,6.5
2022-12-18T04:33:00.483Z,6.5
2022-12-18T04:34:00.461Z,6.8
2022-12-18T04:35:00.430Z,6.8
2022-12-18T04:36:00.414Z,6.8
2022-12-18T04:37:00.410Z,6.8
2022-12-18T04:38:00.402Z,6.8
2022-12-18T04:39:00.397Z,6.8
2022-12-18T04:40:00.399Z,6.8
2022-12-18T04:41:00.381Z,6.8
2022-12-18T04:42:00.375Z,6.8
2022-12-18T04:43:00.549Z,6.8
2022-12-18T04:44:00.375Z,6.8
2022-12-18T04:45:00.375Z,6.8
2022-12-18T04:46:02.726Z,6.8
2022-12-18T04:47:00.419Z,6.8
2022-12-18T04:48:00.920Z,6.8
2022-12-18T04:49:00.400Z,6.8
2022-12-18T04:50:00.422Z,6.8
2022-12-18T04:51:00.403Z,6.8
2022-12-18T04:52:00.382Z,6.8
2022-12-18T04:53:00.377Z,6.8
2022-12-18T04:54:00.384Z,6.7
2022-12-18T04:55:00.383Z,6.7
2022-12-18T04:56:02.216Z,6.7
2022-12-18T04:57:00.430Z,6.7
2022-12-18T04:58:00.405Z,6.7
2022-12-18T04:59:00.410Z,6.7
2022-12-18T05:00:00.386Z,6.7
2022-12-18T05:01:00.601Z,6.7
2022-12-18T05:02:00.538Z,6.7
2022-12-18T05:03:00.995Z,6.7
2022-12-18T05:04:00.794Z,6.7
2022-12-18T05:05:00.422Z,6.7
2022-12-18T05:06:00.418Z,6.7
2022-12-18T05:07:00.403Z,6.7
2022-12-18T05:08:00.530Z,6.7
2022-12-18T05:09:00.408Z,6.7
2022-12-18T05:10:00.411Z,6.7
2022-12-18T05:11:05.223Z,6.7
2022-12-18T05:12:00.436Z,6.7
2022-12-18T05:13:01.375Z,6.7
2022-12-18T05:14:00.372Z,6.6
2022-12-18T05:15:00.385Z,6.6
2022-12-18T05:16:00.874Z,6.6
2022-12-18T05:17:01.219Z,6.6
2022-12-18T05:18:00.684Z,6.6
2022-12-18T05:19:00.380Z,6.6
2022-12-18T05:20:00.419Z,6.6
2022-12-18T05:21:00.681Z,6.6
2022-12-18T05:22:00.403Z,6.6
2022-12-18T05:23:00.384Z,6.6
2022-12-18T05:24:00.412Z,6.6
2022-12-18T05:25:00.375Z,6.6
2022-12-18T05:26:01.778Z,6.6
2022-12-18T05:27:00.382Z,6.6
2022-12-18T05:28:00.381Z,6.6
2022-12-18T05:29:00.412Z,6.6
2022-12-18T05:30:00.370Z,6.6
2022-12-18T05:31:01.208Z,6.6
2022-12-18T05:32:00.377Z,6.6
2022-12-18T05:33:00.375Z,6.6
2022-12-18T05:34:00.421Z,6.5
2022-12-18T05:35:00.406Z,6.5
2022-12-18T05:36:01.440Z,6.5
2022-12-18T05:37:00.421Z,6.5
2022-12-18T05:38:00.397Z,6.5
2022-12-18T05:39:00.402Z,6.5
2022-12-18T05:40:00.723Z,6.5
2022-12-18T05:41:00.396Z,6.5
2022-12-18T05:42:00.377Z,6.5
2022-12-18T05:43:00.417Z,6.5
2022-12-18T05:44:00.491Z,6.5
2022-12-18T05:45:00.415Z,6.5
2022-12-18T05:46:03.288Z,6.5
2022-12-18T05:47:00.442Z,6.5
2022-12-18T05:48:00.398Z,6.5
2022-12-18T05:49:00.412Z,6.5
2022-12-18T05:50:00.497Z,6.5
2022-12-18T05:51:08.980Z,6.5
2022-12-18T05:52:00.375Z,6.5
2022-12-18T05:53:00.395Z,6.5
2022-12-18T05:54:00.400Z,6.3
2022-12-18T05:55:00.405Z,6.3
2022-12-18T05:56:01.968Z,6.3
2022-12-18T05:57:00.411Z,6.3
2022-12-18T05:58:00.580Z,6.3
2022-12-18T05:59:00.384Z,6.3
2022-12-18T06:00:00.416Z,6.3
2022-12-18T06:01:09.327Z,6.3
2022-12-18T06:02:00.561Z,6.3
2022-12-18T06:03:00.724Z,6.3
2022-12-18T06:04:00.502Z,6.3
2022-12-18T06:05:00.396Z,6.3
2022-12-18T06:06:00.423Z,6.3
2022-12-18T06:07:00.374Z,6.3
2022-12-18T06:08:00.411Z,6.3
2022-12-18T06:09:00.432Z,6.3
2022-12-18T06:10:00.423Z,6.3
2022-12-18T06:11:00.376Z,6.3
2022-12-18T06:12:00.397Z,6.3
2022-12-18T06:13:00.560Z,6.3
2022-12-18T06:14:00.758Z,6.0
2022-12-18T06:15:00.409Z,6.0
2022-12-18T06:16:02.036Z,6.0
2022-12-18T06:17:00.395Z,6.0
2022-12-18T06:18:00.840Z,6.0
2022-12-18T06:19:01.214Z,6.0
2022-12-18T06:20:00.522Z,6.0
2022-12-18T06:21:00.424Z,6.0
2022-12-18T06:22:00.409Z,6.0
2022-12-18T06:23:00.393Z,6.0
2022-12-18T06:24:00.532Z,6.0
2022-12-18T06:25:00.594Z,6.0
2022-12-18T06:26:10.310Z,6.0
2022-12-18T06:27:00.397Z,6.0
2022-12-18T06:28:00.406Z,6.0
2022-12-18T06:29:00.380Z,6.0
2022-12-18T06:30:00.711Z,6.0
2022-12-18T06:31:00.411Z,6.0
2022-12-18T06:32:00.408Z,6.0
2022-12-18T06:33:00.411Z,6.0
2022-12-18T06:34:02.166Z,6.4
2022-12-18T06:35:00.398Z,6.4
2022-12-18T06:36:01.719Z,6.4
2022-12-18T06:37:00.381Z,6.4
2022-12-18T06:38:00.958Z,6.4
2022-12-18T06:39:00.369Z,6.4
2022-12-18T06:40:00.417Z,6.4
2022-12-18T06:41:00.406Z,6.4
2022-12-18T06:42:00.409Z,6.4
2022-12-18T06:43:00.375Z,6.4
2022-12-18T06:44:00.423Z,6.4
2022-12-18T06:45:00.414Z,6.4
2022-12-18T06:46:01.164Z,6.4
2022-12-18T06:47:00.396Z,6.4
2022-12-18T06:48:00.480Z,6.4
2022-12-18T06:49:00.375Z,6.4
2022-12-18T06:50:00.416Z,6.4
2022-12-18T06:51:00.650Z,6.4
2022-12-18T06:52:00.376Z,6.4
2022-12-18T06:53:00.394Z,6.4
2022-12-18T06:54:00.741Z,7.0
2022-12-18T06:55:00.407Z,7.0
2022-12-18T06:56:05.082Z,7.0
2022-12-18T06:57:00.405Z,7.0
2022-12-18T06:58:00.371Z,7.0
2022-12-18T06:59:00.498Z,7.0
2022-12-18T07:00:00.450Z,7.0
2022-12-18T07:01:01.336Z,7.0
2022-12-18T07:02:00.516Z,7.0
2022-12-18T07:03:00.480Z,7.0
2022-12-18T07:04:00.991Z,7.0
2022-12-18T07:05:02.754Z,7.0
2022-12-18T07:06:00.400Z,7.0
2022-12-18T07:07:00.401Z,7.0
2022-12-18T07:08:00.372Z,7.0
2022-12-18T07:09:00.403Z,7.0
2022-12-18T07:10:00.450Z,7.0
2022-12-18T07:11:03.030Z,7.0
2022-12-18T07:12:00.421Z,7.0
2022-12-18T07:13:00.379Z,6.3
2022-12-18T07:14:00.390Z,6.3
2022-12-18T07:15:00.421Z,6.3
2022-12-18T07:16:06.104Z,6.3
2022-12-18T07:17:00.577Z,6.3
2022-12-18T07:18:00.386Z,6.3
2022-12-18T07:19:00.377Z,6.3
2022-12-18T07:20:00.379Z,6.3
2022-12-18T07:21:08.965Z,6.3
2022-12-18T07:22:00.591Z,6.3
2022-12-18T07:23:02.007Z,6.3
2022-12-18T07:24:00.408Z,6.3
2022-12-18T07:25:00.465Z,6.3
2022-12-18T07:26:04.389Z,6.3
2022-12-18T07:27:00.423Z,6.3
2022-12-18T07:28:00.484Z,6.3
2022-12-18T07:29:00.399Z,6.3
2022-12-18T07:30:00.396Z,6.3
2022-12-18T07:31:09.557Z,6.3
2022-12-18T07:32:00.445Z,6.3
2022-12-18T07:33:00.401Z,6.2
2022-12-18T07:34:00.413Z,6.2
2022-12-18T07:35:00.375Z,6.2
2022-12-18T07:36:00.883Z,6.2
2022-12-18T07:37:00.748Z,6.2
2022-12-18T07:38:00.370Z,6.2
2022-12-18T07:39:00.395Z,6.2
2022-12-18T07:40:00.367Z,6.2
2022-12-18T07:41:02.556Z,6.2
2022-12-18T07:42:00.398Z,6.2
2022-12-18T07:43:00.399Z,6.2
2022-12-18T07:44:00.378Z,6.2
2022-12-18T07:45:00.794Z,6.2
2022-12-18T07:46:00.730Z,6.2
2022-12-18T07:47:00.400Z,6.2
2022-12-18T07:48:00.417Z,6.2
2022-12-18T07:49:00.369Z,6.2
2022-12-18T07:50:00.405Z,6.2
2022-12-18T07:51:02.673Z,6.2
2022-12-18T07:52:00.376Z,6.2
2022-12-18T07:53:00.403Z,7.3
2022-12-18T07:54:00.375Z,7.3
2022-12-18T07:55:00.437Z,7.3
2022-12-18T07:57:00.542Z,7.3
2022-12-18T07:58:01.372Z,7.3
2022-12-18T07:59:00.631Z,7.3
2022-12-18T08:00:00.405Z,7.3
2022-12-18T08:01:04.288Z,7.3
2022-12-18T08:02:00.794Z,7.3
2022-12-18T08:03:00.674Z,7.3
2022-12-18T08:04:00.403Z,7.3
2022-12-18T08:05:00.412Z,7.3
2022-12-18T08:06:01.198Z,7.3
2022-12-18T08:07:00.386Z,7.3
2022-12-18T08:08:00.375Z,7.3
2022-12-18T08:09:00.554Z,7.3
2022-12-18T08:10:00.388Z,7.3
2022-12-18T08:11:00.445Z,7.3
2022-12-18T08:12:00.398Z,7.3
2022-12-18T08:13:04.856Z,6.5
2022-12-18T08:14:00.414Z,6.5
2022-12-18T08:15:00.416Z,6.5
2022-12-18T08:16:01.861Z,6.5
2022-12-18T08:17:00.568Z,6.5
2022-12-18T08:18:00.404Z,6.5
2022-12-18T08:19:00.452Z,6.5
2022-12-18T08:20:00.375Z,6.5
2022-12-18T08:21:10.348Z,6.5
2022-12-18T08:22:00.427Z,6.5
2022-12-18T08:23:00.372Z,6.5
2022-12-18T08:24:00.832Z,6.5
2022-12-18T08:25:00.400Z,6.5
2022-12-18T08:26:00.397Z,6.5
2022-12-18T08:27:28.429Z,6.5
2022-12-18T08:28:00.401Z,6.5
2022-12-18T08:29:00.521Z,6.5
2022-12-18T08:30:00.685Z,6.5
2022-12-18T08:31:00.636Z,6.5
2022-12-18T08:32:00.428Z,6.5
2022-12-18T08:33:00.426Z,5.8
2022-12-18T08:34:00.375Z,5.8
2022-12-18T08:35:00.468Z,5.8
2022-12-18T08:36:00.943Z,5.8
2022-12-18T08:37:00.571Z,5.8
2022-12-18T08:38:00.375Z,5.8
2022-12-18T08:39:00.421Z,5.8
2022-12-18T08:40:00.420Z,5.8
2022-12-18T08:41:00.826Z,5.8
2022-12-18T08:42:04.146Z,5.8
2022-12-18T08:43:00.372Z,5.8
2022-12-18T08:44:00.380Z,5.8
2022-12-18T08:45:00.501Z,5.8
2022-12-18T08:46:00.623Z,5.8
2022-12-18T08:47:00.367Z,5.8
2022-12-18T08:48:00.395Z,5.8
2022-12-18T08:49:00.385Z,5.8
2022-12-18T08:50:00.412Z,5.8
2022-12-18T08:51:00.406Z,5.8
2022-12-18T08:52:00.427Z,5.8
2022-12-18T08:53:00.614Z,5.8
2022-12-18T08:54:00.610Z,5.8
2022-12-18T08:55:00.411Z,5.8
2022-12-18T08:56:00.370Z,5.8
2022-12-18T08:57:00.374Z,5.8
2022-12-18T08:58:00.406Z,5.8
2022-12-18T08:59:00.439Z,5.8
2022-12-18T09:00:00.526Z,5.8
2022-12-18T09:01:01.128Z,5.8
2022-12-18T09:02:00.559Z,5.8
2022-12-18T09:03:00.454Z,5.8
2022-12-18T09:04:00.378Z,5.8
2022-12-18T09:05:00.392Z,5.8
2022-12-18T09:06:00.778Z,5.8
2022-12-18T09:07:00.369Z,5.8
2022-12-18T09:08:00.373Z,5.8
2022-12-18T09:09:00.403Z,5.8
2022-12-18T09:10:00.425Z,5.8
2022-12-18T09:11:00.376Z,5.8
2022-12-18T09:12:00.495Z,5.8
2022-12-18T09:13:00.417Z,6.2
2022-12-18T09:14:00.972Z,6.2
2022-12-18T09:15:00.422Z,6.2
2022-12-18T09:16:03.012Z,6.2
2022-12-18T09:17:00.449Z,6.2
2022-12-18T09:18:00.379Z,6.2
2022-12-18T09:19:00.962Z,6.2
2022-12-18T09:20:00.404Z,6.2
2022-12-18T09:21:06.823Z,6.2
2022-12-18T09:22:00.402Z,6.2
2022-12-18T09:23:00.370Z,6.2
2022-12-18T09:24:00.380Z,6.2
2022-12-18T09:25:00.394Z,6.2
2022-12-18T09:26:00.379Z,6.2
2022-12-18T09:27:00.437Z,6.2
2022-12-18T09:28:00.400Z,6.2
2022-12-18T09:29:00.401Z,6.2
2022-12-18T09:30:00.943Z,6.2
2022-12-18T09:31:03.935Z,6.2
2022-12-18T09:32:00.378Z,6.2
2022-12-18T09:33:00.378Z,5.1
2022-12-18T09:34:00.397Z,5.1
2022-12-18T09:35:00.408Z,5.1
2022-12-18T09:36:01.469Z,5.1
2022-12-18T09:37:00.399Z,5.1
2022-12-18T09:38:00.397Z,5.1
2022-12-18T09:39:03.853Z,5.1
2022-12-18T09:40:00.404Z,5.1
2022-12-18T09:41:05.195Z,5.1
2022-12-18T09:42:00.560Z,5.1
2022-12-18T09:43:03.162Z,5.1
2022-12-18T09:44:02.666Z,5.1
2022-12-18T09:45:01.049Z,5.1
2022-12-18T09:46:03.159Z,5.1
2022-12-18T09:47:10.330Z,5.1
2022-12-18T09:48:00.583Z,5.1
2022-12-18T09:49:02.589Z,5.1
2022-12-18T09:50:03.667Z,5.1
2022-12-18T09:51:03.968Z,5.1
2022-12-18T09:52:03.650Z,5.1
2022-12-18T09:53:04.910Z,5.5
2022-12-18T09:54:05.587Z,5.5
2022-12-18T09:55:05.410Z,5.5
2022-12-18T09:56:03.055Z,5.5
2022-12-18T09:57:00.415Z,5.5
2022-12-18T09:58:05.670Z,5.5
2022-12-18T09:59:01.521Z,5.5
2022-12-18T10:00:10.348Z,5.5
2022-12-18T10:01:00.500Z,5.5
2022-12-18T10:02:02.251Z,5.5
2022-12-18T10:03:08.716Z,5.5
2022-12-18T10:04:00.489Z,5.5
2022-12-18T10:05:03.406Z,5.5
2022-12-18T10:06:10.335Z,5.5
2022-12-18T10:07:09.187Z,5.5
2022-12-18T10:08:01.384Z,5.5
2022-12-18T10:09:00.384Z,5.5
2022-12-18T10:10:06.516Z,5.5
2022-12-18T10:11:10.335Z,5.5
2022-12-18T10:12:00.372Z,5.6
2022-12-18T10:13:07.236Z,5.6
2022-12-18T10:14:06.694Z,5.6
2022-12-18T10:15:06.355Z,5.6
2022-12-18T10:16:08.181Z,5.6
2022-12-18T10:17:10.307Z,5.6
2022-12-18T10:18:10.332Z,5.6
2022-12-18T10:19:10.336Z,5.6
2022-12-18T10:20:10.331Z,5.6
2022-12-18T10:21:06.004Z,5.6
2022-12-18T10:22:10.279Z,5.6
2022-12-18T10:27:10.582Z,5.6
2022-12-18T10:28:08.581Z,5.6
2022-12-18T10:29:05.524Z,5.6
2022-12-18T10:30:00.984Z,5.6
2022-12-18T10:31:00.733Z,5.6
2022-12-18T10:32:00.592Z,5.8
2022-12-18T10:33:02.138Z,5.8
2022-12-18T10:34:00.583Z,5.8
2022-12-18T10:35:01.137Z,5.8
2022-12-18T10:36:00.603Z,5.8
2022-12-18T10:37:01.613Z,5.8
2022-12-18T10:38:05.698Z,5.8
2022-12-18T10:39:10.547Z,5.8
2022-12-18T10:40:10.548Z,5.8
2022-12-18T10:41:02.012Z,5.8
2022-12-18T10:42:10.524Z,5.8
2022-12-18T10:43:03.844Z,5.8
2022-12-18T10:44:10.547Z,5.8
2022-12-18T10:45:03.269Z,5.8
2022-12-18T10:46:07.954Z,5.8
2022-12-18T10:47:08.742Z,5.8
2022-12-18T10:48:00.668Z,5.8
2022-12-18T10:49:00.641Z,5.8
2022-12-18T10:50:00.867Z,5.8
2022-12-18T10:51:12.991Z,5.8
2022-12-18T10:52:10.522Z,4.6
2022-12-18T10:53:03.082Z,4.6
2022-12-18T10:54:01.957Z,4.6
2022-12-18T10:55:02.341Z,4.6
2022-12-18T10:56:02.074Z,4.6
2022-12-18T10:57:10.547Z,4.6
2022-12-18T10:58:10.521Z,4.6
2022-12-18T10:59:03.670Z,4.6
2022-12-18T11:00:10.527Z,4.6
2022-12-18T11:01:03.722Z,4.6
2022-12-18T11:02:00.722Z,4.6
2022-12-18T11:03:00.842Z,4.6
2022-12-18T11:04:02.939Z,4.6
2022-12-18T11:05:00.725Z,4.6
2022-12-18T11:06:03.173Z,4.6
2022-12-18T11:07:03.239Z,4.6
2022-12-18T11:08:01.147Z,4.6
2022-12-18T11:09:05.371Z,4.6
2022-12-18T11:10:01.295Z,4.6
2022-12-18T11:11:00.873Z,4.6
2022-12-18T11:12:03.639Z,4.5
2022-12-18T11:13:10.520Z,4.5
2022-12-18T11:14:02.322Z,4.5
2022-12-18T11:15:00.660Z,4.5
2022-12-18T11:16:00.893Z,4.5
2022-12-18T11:17:25.569Z,4.5
2022-12-18T11:18:00.620Z,4.5
2022-12-18T11:19:10.527Z,4.5
2022-12-18T11:20:02.678Z,4.5
2022-12-18T11:21:06.152Z,4.5
2022-12-18T11:22:01.705Z,4.5
2022-12-18T11:23:02.547Z,4.5
2022-12-18T11:24:00.647Z,4.5
2022-12-18T11:25:32.147Z,4.5
2022-12-18T11:26:03.440Z,4.5
2022-12-18T11:27:02.362Z,4.5
2022-12-18T11:28:02.180Z,4.5
2022-12-18T11:29:09.987Z,4.5
2022-12-18T11:30:09.826Z,4.5
2022-12-18T11:31:10.565Z,4.5
2022-12-18T11:32:10.522Z,4.3
2022-12-18T11:33:10.543Z,4.3
2022-12-18T11:34:29.462Z,4.3
2022-12-18T11:35:04.469Z,4.3
2022-12-18T11:36:01.852Z,4.3
2022-12-18T11:37:02.612Z,4.3
2022-12-18T11:38:04.575Z,4.3
2022-12-18T11:39:05.705Z,4.3
2022-12-18T11:40:06.151Z,4.3
2022-12-18T11:41:03.873Z,4.3
2022-12-18T11:42:05.427Z,4.3
2022-12-18T11:43:10.516Z,4.3
2022-12-18T11:44:01.982Z,4.3
2022-12-18T11:45:03.315Z,4.3
2022-12-18T11:46:04.737Z,4.3
2022-12-18T11:47:04.531Z,4.3
2022-12-18T11:48:10.520Z,4.3
2022-12-18T11:49:06.548Z,4.3
2022-12-18T11:50:01.728Z,4.3
2022-12-18T11:51:03.650Z,4.3
2022-12-18T11:52:09.261Z,5.2
2022-12-18T11:53:05.664Z,5.2
2022-12-18T11:54:00.925Z,5.2
2022-12-18T11:55:01.504Z,5.2
2022-12-18T11:56:08.042Z,5.2
2022-12-18T11:57:01.597Z,5.2
2022-12-18T11:58:10.545Z,5.2
2022-12-18T11:59:10.547Z,5.2
2022-12-18T12:00:10.525Z,5.2
2022-12-18T12:01:10.551Z,5.2
2022-12-18T12:02:00.745Z,5.2
2022-12-18T12:03:10.623Z,5.2
2022-12-18T12:04:10.591Z,5.2
2022-12-18T12:05:00.654Z,5.2
2022-12-18T12:06:01.613Z,5.2
2022-12-18T12:07:10.544Z,5.2
2022-12-18T12:08:10.523Z,5.2
2022-12-18T12:09:06.789Z,5.2
2022-12-18T12:10:05.290Z,5.2
2022-12-18T12:11:01.576Z,5.2
2022-12-18T12:12:09.410Z,4.2
2022-12-18T12:13:10.523Z,4.2
2022-12-18T12:14:10.544Z,4.2
2022-12-18T12:15:10.071Z,4.2
2022-12-18T12:16:01.627Z,4.2
2022-12-18T12:17:00.596Z,4.2
2022-12-18T12:18:00.620Z,4.2
2022-12-18T12:19:00.574Z,4.2
2022-12-18T12:20:05.888Z,4.2
2022-12-18T12:21:00.587Z,4.2
2022-12-18T12:22:09.355Z,4.2
2022-12-18T12:23:05.937Z,4.2
2022-12-18T12:24:10.521Z,4.2
2022-12-18T12:25:10.550Z,4.2
2022-12-18T12:26:10.522Z,4.2
2022-12-18T12:27:06.688Z,4.2
2022-12-18T12:28:10.524Z,4.2
2022-12-18T12:29:10.727Z,4.2
2022-12-18T12:30:04.274Z,4.2
2022-12-18T12:31:07.647Z,4.2
2022-12-18T12:32:10.542Z,4.5
2022-12-18T12:33:10.547Z,4.5
2022-12-18T12:34:07.603Z,4.5
2022-12-18T12:35:09.841Z,4.5
2022-12-18T12:36:10.522Z,4.5
2022-12-18T12:37:08.053Z,4.5
2022-12-18T12:38:03.823Z,4.5
2022-12-18T12:39:03.029Z,4.5
2022-12-18T12:40:10.980Z,4.5
2022-12-18T12:41:04.015Z,4.5
2022-12-18T12:42:01.535Z,4.5
2022-12-18T12:43:03.820Z,4.5
2022-12-18T12:44:04.285Z,4.5
2022-12-18T12:45:03.326Z,4.5
2022-12-18T12:46:03.444Z,4.5
2022-12-18T12:47:04.463Z,4.5
2022-12-18T12:48:02.178Z,4.5
2022-12-18T12:49:02.548Z,4.5
2022-12-18T12:50:02.390Z,4.5
2022-12-18T12:51:02.408Z,4.5
2022-12-18T12:52:10.521Z,4.5
2022-12-18T12:53:01.343Z,4.5
2022-12-18T12:54:02.391Z,4.5
2022-12-18T12:55:02.018Z,4.5
2022-12-18T12:56:01.313Z,4.5
2022-12-18T12:57:01.595Z,4.5
2022-12-18T12:58:01.601Z,4.5
2022-12-18T12:59:01.603Z,4.5
2022-12-18T13:00:00.605Z,4.5
2022-12-18T13:01:00.650Z,4.5
2022-12-18T13:02:01.730Z,4.5
2022-12-18T13:03:07.961Z,4.5
2022-12-18T13:04:01.570Z,4.5
2022-12-18T13:05:10.522Z,4.5
2022-12-18T13:06:05.525Z,4.5
2022-12-18T13:07:10.521Z,4.5
2022-12-18T13:08:03.658Z,4.5
2022-12-18T13:09:00.946Z,4.5
2022-12-18T13:10:11.245Z,4.5
2022-12-18T13:11:00.725Z,4.5
2022-12-18T13:12:02.735Z,4.1
2022-12-18T13:13:03.827Z,4.1
2022-12-18T13:14:00.673Z,4.1
2022-12-18T13:15:11.789Z,4.1
2022-12-18T13:16:05.349Z,4.1
2022-12-18T13:17:10.545Z,4.1
2022-12-18T13:18:10.588Z,4.1
2022-12-18T13:19:00.621Z,4.1
2022-12-18T13:20:05.614Z,4.1
2022-12-18T13:21:03.235Z,4.1
2022-12-18T13:22:00.654Z,4.1
2022-12-18T13:23:00.954Z,4.1
2022-12-18T13:24:10.551Z,4.1
2022-12-18T13:25:00.688Z,4.1
2022-12-18T13:26:07.879Z,4.1
2022-12-18T13:27:10.527Z,4.1
2022-12-18T13:28:00.572Z,4.1
2022-12-18T13:29:01.202Z,4.1
2022-12-18T13:30:00.618Z,4.1
2022-12-18T13:31:01.439Z,4.3
2022-12-18T13:32:01.176Z,4.3
2022-12-18T13:33:10.522Z,4.3
2022-12-18T13:34:25.780Z,4.3
2022-12-18T13:35:10.548Z,4.3
2022-12-18T13:36:02.304Z,4.3
2022-12-18T13:37:10.521Z,4.3
2022-12-18T13:38:00.608Z,4.3
2022-12-18T13:39:10.523Z,4.3
2022-12-18T13:40:00.618Z,4.3
2022-12-18T13:41:01.789Z,4.3
2022-12-18T13:42:01.600Z,4.3
2022-12-18T13:43:00.640Z,4.3
2022-12-18T13:44:10.523Z,4.3
2022-12-18T13:45:00.596Z,4.3
2022-12-18T13:46:10.520Z,4.3
2022-12-18T13:47:01.945Z,4.3
2022-12-18T13:48:00.677Z,4.3
2022-12-18T13:49:02.290Z,4.3
2022-12-18T13:50:09.018Z,4.3
2022-12-18T13:51:02.973Z,4.8
2022-12-18T13:52:00.639Z,4.8